Weather at Mercy Medical Center Heliport

Public forecast

Using degrees Fahrenheit for public forecast. Weather courtesy of forecast.io.

Closest aviation weather report (METAR) to Mercy Medical Center Heliport

Closest report is Wittman Regional Airport, 2.8 nm (5.2 km) SSW. Retrieved 2021/06/23 01:53 UTC (38 minutes ago):

KOSH 230153Z 00000KT 10SM BKN070 17/10 A2993

Closest aviation forecast (TAF) to Mercy Medical Center Heliport

Forecast is more than 12 hours old.

Closest forecast is Wittman Regional Airport, 2.8 nm (5.2 km) SSW. Retrieved 2021/05/03 12:42 UTC (2 months ago):

TAF KOSH 031141Z 0312/0412 VRB04KT 4SM TSRA BR OVC005CB TEMPO 0315/0318 2SM TSRA BR OVC001CB FM031800 04005KT 4SM SHRA BR OVC006 TEMPO 0318/0321 2SM TSRA BR OVC004CB FM040000 36007KT 4SM BR VCTS BKN005CB FM040300 35007KT 6SM BR VCSH BKN008 FM040600 33009KT P6SM OVC010